Oak Grove, Virginia
Current Conditions -  °F | °C
As of 11:15 AM on Thursday 18 Dec 2014 (Local Time) from KXSA Reporting Station
Clear Clear  
Wind Chill: 37°   Ceiling: Unl
Heat Index: 42°   Visibility: 10mi
Dew Point: 18°   Wind: 8mph
Humidity: 38%   Direction: 320°NW
Pressure: 30.16"   Gusts: NA
Location:  38.184°N, 76.9988°W
Report Text: KXSA 181615Z AUTO 32007KT 10SM CLR 06/M08 A3016 RMK AO2 T00551078
Loading
Personal Weather Stations






























Interactive Weather Map New forecast layout! Learn more

10-Day Weather Forecast

Advertisements
Track Severe Weather on mobile